Time;durP1;ratioP1;P1;durP2;ratioP2;P2;SDS_P1;SDS_P2;PMS_P1;PMS_P2;Temp;Humidity;BMP_temperature;BMP_pressure;BME280_temperature;BME280_humidity;BME280_pressure;Samples;Min_cycle;Max_cycle;Signal;HPM_P1;HPM_P2
2023/03/17 00:01:52;;;;;;;;;;;8.10;99.90;;;;;;4879155;29;1013;-61
2023/03/17 00:04:19;;;;;;;;;;;8.10;99.90;;;;;;4879656;29;1168;-60
2023/03/17 00:06:46;;;;;;;;;;;8.10;99.90;;;;;;4879531;29;1044;-59
2023/03/17 00:09:13;;;;;;;;;;;8.10;99.90;;;;;;4861277;29;1385;-61
2023/03/17 00:11:40;;;;;;;;;;;8.10;99.90;;;;;;4860227;29;1024;-62
2023/03/17 00:14:06;;;;;;;;;;;8.10;99.90;;;;;;4860872;29;977;-61
2023/03/17 00:16:41;;;;;;;;;;;8.20;99.90;;;;;;4860863;29;1976;-61
2023/03/17 00:19:13;;;;;;;;;;;8.20;99.90;;;;;;4877989;29;1170;-61
2023/03/17 00:21:40;;;;;;;;;;;8.20;99.90;;;;;;4878814;29;1051;-59
2023/03/17 00:24:10;;;;;;;;;;;8.20;99.90;;;;;;4879184;29;1012;-61
2023/03/17 00:26:36;;;;;;;;;;;8.20;99.90;;;;;;4879119;29;1032;-59
2023/03/17 00:29:04;;;;;;;;;;;8.20;99.90;;;;;;4862230;29;1174;-61
2023/03/17 00:31:32;;;;;;;;;;;8.20;99.90;;;;;;4861261;29;937;-58
2023/03/17 00:33:59;;;;;;;;;;;8.10;99.90;;;;;;4860965;29;811;-60
2023/03/17 00:36:27;;;;;;;;;;;8.20;99.90;;;;;;4861189;29;1911;-61
2023/03/17 00:38:53;;;;;;;;;;;8.20;99.90;;;;;;4879565;29;1193;-58
2023/03/17 00:41:19;;;;;;;;;;;8.10;99.90;;;;;;4882255;29;774;-60
2023/03/17 00:43:45;;;;;;;;;;;8.10;99.90;;;;;;4882382;29;976;-59
2023/03/17 00:46:15;;;;;;;;;;;8.10;99.90;;;;;;4882280;29;1056;-62
2023/03/17 00:48:43;;;;;;;;;;;8.10;99.90;;;;;;4868446;29;1209;-60
2023/03/17 00:51:09;;;;;;;;;;;8.10;99.90;;;;;;4864077;29;1008;-60
2023/03/17 00:53:35;;;;;;;;;;;8.10;99.90;;;;;;4863418;29;1222;-59
2023/03/17 00:56:02;;;;;;;;;;;8.10;99.90;;;;;;4863607;29;1970;-60
2023/03/17 00:58:33;;;;;;;;;;;8.10;99.90;;;;;;4875796;29;1143;-61
2023/03/17 01:00:59;;;;;;;;;;;8.10;99.90;;;;;;4881993;29;981;-60
2023/03/17 01:03:26;;;;;;;;;;;8.10;99.90;;;;;;4881835;29;949;-59
2023/03/17 01:05:53;;;;;;;;;;;8.10;99.90;;;;;;4882140;29;1044;-62
2023/03/17 01:08:21;;;;;;;;;;;8.10;99.90;;;;;;4870935;29;1150;-61
2023/03/17 01:10:47;;;;;;;;;;;8.10;99.90;;;;;;4863176;29;1736;-61
2023/03/17 01:13:14;;;;;;;;;;;8.10;99.90;;;;;;4863128;29;1025;-61
2023/03/17 01:15:42;;;;;;;;;;;8.10;99.90;;;;;;4863226;29;1969;-61
2023/03/17 01:18:10;;;;;;;;;;;8.20;99.90;;;;;;4872677;29;1178;-61
2023/03/17 01:20:37;;;;;;;;;;;8.20;99.90;;;;;;4882133;29;793;-61
2023/03/17 01:23:03;;;;;;;;;;;8.10;99.90;;;;;;4881522;29;914;-62
2023/03/17 01:25:29;;;;;;;;;;;8.10;99.90;;;;;;4882023;29;1080;-60
2023/03/17 01:27:56;;;;;;;;;;;8.10;99.90;;;;;;4873763;29;1248;-60
2023/03/17 01:30:27;;;;;;;;;;;8.10;99.90;;;;;;4863101;29;1001;-58
2023/03/17 01:32:54;;;;;;;;;;;8.20;99.90;;;;;;4862927;29;990;-61
2023/03/17 01:35:20;;;;;;;;;;;8.20;99.90;;;;;;4862857;29;1908;-61
2023/03/17 01:37:47;;;;;;;;;;;8.20;99.90;;;;;;4869642;29;1182;-61
2023/03/17 01:40:16;;;;;;;;;;;8.10;99.90;;;;;;4881453;29;830;-61
2023/03/17 01:42:46;;;;;;;;;;;8.10;99.90;;;;;;4881136;29;989;-58
2023/03/17 01:45:48;;;;;;;;;;;8.10;99.90;;;;;;4882308;29;1037;-61
2023/03/17 01:48:16;;;;;;;;;;;8.10;99.90;;;;;;4871377;29;1174;-62
2023/03/17 01:50:43;;;;;;;;;;;8.00;99.90;;;;;;4862688;29;974;-62
2023/03/17 01:53:10;;;;;;;;;;;8.00;99.90;;;;;;4862622;29;1008;-60
2023/03/17 01:55:37;;;;;;;;;;;8.00;99.90;;;;;;4862573;29;1903;-61
2023/03/17 01:58:03;;;;;;;;;;;7.90;99.90;;;;;;4870823;29;1123;-59
2023/03/17 02:00:31;;;;;;;;;;;7.90;99.90;;;;;;4881115;29;1047;-61
2023/03/17 02:02:57;;;;;;;;;;;7.90;99.90;;;;;;4880970;29;1000;-60
2023/03/17 02:05:28;;;;;;;;;;;7.90;99.90;;;;;;4876644;29;1240;-60
2023/03/17 02:07:55;;;;;;;;;;;7.90;99.90;;;;;;4869593;29;1158;-61
2023/03/17 02:10:22;;;;;;;;;;;7.90;99.90;;;;;;4881160;29;1159;-61
2023/03/17 02:12:53;;;;;;;;;;;7.90;99.90;;;;;;4880529;29;861;-58
2023/03/17 02:15:20;;;;;;;;;;;7.80;99.90;;;;;;4881221;29;988;-60
2023/03/17 02:17:46;;;;;;;;;;;7.90;99.90;;;;;;4874453;29;1911;-60
2023/03/17 02:20:15;;;;;;;;;;;7.90;99.90;;;;;;4862478;29;1055;-61
2023/03/17 02:22:42;;;;;;;;;;;7.90;99.90;;;;;;4862239;29;747;-60
2023/03/17 02:25:09;;;;;;;;;;;7.90;99.90;;;;;;4862641;29;835;-59
2023/03/17 02:27:38;;;;;;;;;;;7.90;99.90;;;;;;4866597;29;1150;-61
2023/03/17 02:30:05;;;;;;;;;;;7.90;99.90;;;;;;4880526;29;1016;-62
2023/03/17 02:32:34;;;;;;;;;;;7.90;99.90;;;;;;4880488;29;1036;-60
2023/03/17 02:35:00;;;;;;;;;;;7.90;99.90;;;;;;4880761;29;1008;-60
2023/03/17 02:37:27;;;;;;;;;;;7.90;99.90;;;;;;4876737;29;1907;-60
2023/03/17 02:39:53;;;;;;;;;;;7.80;99.90;;;;;;4862041;29;770;-59
2023/03/17 02:42:19;;;;;;;;;;;7.80;99.90;;;;;;4861598;29;751;-59
2023/03/17 02:44:45;;;;;;;;;;;7.80;99.90;;;;;;4861330;29;1053;-59
2023/03/17 02:47:12;;;;;;;;;;;7.80;99.90;;;;;;4863045;29;1142;-61
2023/03/17 02:49:39;;;;;;;;;;;7.80;99.90;;;;;;4880494;29;1068;-59
2023/03/17 02:52:06;;;;;;;;;;;7.80;99.90;;;;;;4879868;29;1005;-59
2023/03/17 02:54:32;;;;;;;;;;;7.80;99.90;;;;;;4880597;29;742;-62
2023/03/17 02:56:59;;;;;;;;;;;7.90;99.90;;;;;;4879277;29;1931;-61
2023/03/17 02:59:25;;;;;;;;;;;7.90;99.90;;;;;;4879642;29;1162;-61
2023/03/17 03:01:52;;;;;;;;;;;7.90;99.90;;;;;;4879878;29;976;-59
2023/03/17 03:04:18;;;;;;;;;;;7.90;99.90;;;;;;4880221;29;1052;-61
2023/03/17 03:06:45;;;;;;;;;;;7.90;99.90;;;;;;4880198;29;834;-60
2023/03/17 03:09:12;;;;;;;;;;;7.90;99.90;;;;;;4863063;29;1126;-61
2023/03/17 03:11:38;;;;;;;;;;;7.80;99.90;;;;;;4860944;29;1079;-58
2023/03/17 03:14:05;;;;;;;;;;;7.80;99.90;;;;;;4861495;29;805;-61
2023/03/17 03:16:31;;;;;;;;;;;7.80;99.90;;;;;;4861430;29;1989;-60
2023/03/17 03:18:57;;;;;;;;;;;7.70;99.90;;;;;;4875801;29;1142;-61
2023/03/17 03:21:23;;;;;;;;;;;7.70;99.90;;;;;;4879505;29;998;-59
2023/03/17 03:23:49;;;;;;;;;;;7.70;99.90;;;;;;4879824;29;1188;-61
2023/03/17 03:26:16;;;;;;;;;;;7.70;99.90;;;;;;4879911;29;989;-60
2023/03/17 03:28:42;;;;;;;;;;;7.70;99.90;;;;;;4866965;29;1145;-60
2023/03/17 03:31:08;;;;;;;;;;;7.70;99.90;;;;;;4860513;29;1061;-60
2023/03/17 03:33:35;;;;;;;;;;;7.70;99.90;;;;;;4860463;29;1088;-60
2023/03/17 03:36:01;;;;;;;;;;;7.70;99.90;;;;;;4861013;29;1978;-59
2023/03/17 03:38:28;;;;;;;;;;;7.70;99.90;;;;;;4871567;29;1138;-61
2023/03/17 03:40:54;;;;;;;;;;;7.80;99.90;;;;;;4879525;29;826;-59
2023/03/17 03:43:20;;;;;;;;;;;7.80;99.90;;;;;;4879056;29;1017;-60
2023/03/17 03:45:46;;;;;;;;;;;7.70;99.90;;;;;;4879415;29;973;-58
2023/03/17 03:48:13;;;;;;;;;;;7.80;99.90;;;;;;4870397;29;1150;-59
2023/03/17 03:50:39;;;;;;;;;;;7.70;99.90;;;;;;4860807;29;997;-60
2023/03/17 03:53:06;;;;;;;;;;;7.70;99.90;;;;;;4860455;29;973;-62
2023/03/17 03:55:32;;;;;;;;;;;7.80;99.90;;;;;;4860843;29;1100;-59
2023/03/17 03:57:58;;;;;;;;;;;7.70;99.90;;;;;;4867539;29;1904;-56
2023/03/17 04:00:24;;;;;;;;;;;7.70;99.90;;;;;;4879263;29;982;-60
2023/03/17 04:02:51;;;;;;;;;;;7.70;99.90;;;;;;4878974;29;1019;-59
2023/03/17 04:05:17;;;;;;;;;;;7.70;99.90;;;;;;4879315;29;1057;-62
2023/03/17 04:07:44;;;;;;;;;;;7.70;99.90;;;;;;4874073;29;1286;-60
2023/03/17 04:10:11;;;;;;;;;;;7.70;99.90;;;;;;4860746;29;1020;-59
2023/03/17 04:12:38;;;;;;;;;;;7.70;99.90;;;;;;4862817;29;787;-60
2023/03/17 04:15:05;;;;;;;;;;;7.70;99.90;;;;;;4864347;29;1075;-61
2023/03/17 04:17:31;;;;;;;;;;;7.70;99.90;;;;;;4851257;29;1978;-61
2023/03/17 04:19:57;;;;;;;;;;;7.70;99.90;;;;;;4882873;29;832;-60
2023/03/17 04:22:23;;;;;;;;;;;7.70;99.90;;;;;;4882599;29;984;-59
2023/03/17 04:24:49;;;;;;;;;;;7.70;99.90;;;;;;4882928;29;972;-59
2023/03/17 04:27:16;;;;;;;;;;;7.60;99.90;;;;;;4881226;29;1146;-62
2023/03/17 04:29:42;;;;;;;;;;;7.70;99.90;;;;;;4864124;29;993;-59
2023/03/17 04:32:12;;;;;;;;;;;7.70;99.90;;;;;;4863749;29;948;-59
2023/03/17 04:34:38;;;;;;;;;;;7.70;99.90;;;;;;4864100;29;977;-59
2023/03/17 04:37:05;;;;;;;;;;;7.60;99.90;;;;;;4864120;29;1907;-61
2023/03/17 04:39:31;;;;;;;;;;;7.70;99.90;;;;;;4882661;29;1186;-59
2023/03/17 04:41:57;;;;;;;;;;;7.70;99.90;;;;;;4882167;29;1001;-60
2023/03/17 04:44:23;;;;;;;;;;;7.70;99.90;;;;;;4882956;29;1005;-55
2023/03/17 04:46:50;;;;;;;;;;;7.60;99.90;;;;;;4882652;29;1029;-59
2023/03/17 04:49:16;;;;;;;;;;;7.60;99.90;;;;;;4865565;29;1221;-61
2023/03/17 04:51:43;;;;;;;;;;;7.60;99.90;;;;;;4863450;29;1056;-60
2023/03/17 04:54:09;;;;;;;;;;;7.60;99.90;;;;;;4847397;29;1084;-58
2023/03/17 04:56:35;;;;;;;;;;;7.60;99.90;;;;;;4863263;29;1919;-60
2023/03/17 04:59:02;;;;;;;;;;;7.70;99.90;;;;;;4878210;29;1198;-61
2023/03/17 05:01:28;;;;;;;;;;;7.60;99.90;;;;;;4881631;29;969;-60
2023/03/17 05:03:55;;;;;;;;;;;7.70;99.90;;;;;;4882105;29;1072;-60
2023/03/17 05:06:21;;;;;;;;;;;7.70;99.90;;;;;;4865411;29;1190;-59
2023/03/17 05:08:47;;;;;;;;;;;7.70;99.90;;;;;;4868917;29;1181;-57
2023/03/17 05:11:14;;;;;;;;;;;7.70;99.90;;;;;;4862928;29;1052;-60
2023/03/17 05:13:40;;;;;;;;;;;7.70;99.90;;;;;;4863376;29;964;-61
2023/03/17 05:16:07;;;;;;;;;;;7.70;99.90;;;;;;4863926;29;984;-61
2023/03/17 05:18:34;;;;;;;;;;;7.60;99.90;;;;;;4874266;29;1090;-60
2023/03/17 05:21:00;;;;;;;;;;;7.60;99.90;;;;;;4865627;29;953;-58
2023/03/17 05:23:26;;;;;;;;;;;7.60;99.90;;;;;;4881078;29;1032;-59
2023/03/17 05:25:53;;;;;;;;;;;7.60;99.90;;;;;;4865539;29;973;-60
2023/03/17 05:28:19;;;;;;;;;;;7.60;99.90;;;;;;4872707;29;1197;-61
2023/03/17 05:30:46;;;;;;;;;;;7.60;99.90;;;;;;4863197;29;965;-61
2023/03/17 05:33:13;;;;;;;;;;;7.60;99.90;;;;;;4862688;29;993;-59
2023/03/17 05:35:40;;;;;;;;;;;7.60;99.90;;;;;;4862815;29;1334;-60
2023/03/17 05:38:07;;;;;;;;;;;7.60;99.90;;;;;;4869682;29;1903;-58
2023/03/17 05:40:34;;;;;;;;;;;7.60;99.90;;;;;;4881526;29;875;-60
2023/03/17 05:43:00;;;;;;;;;;;7.60;99.90;;;;;;4881189;29;941;-59
2023/03/17 05:45:27;;;;;;;;;;;7.70;99.90;;;;;;4881225;29;989;-61
2023/03/17 05:47:53;;;;;;;;;;;7.70;99.90;;;;;;4875778;29;1174;-61
2023/03/17 05:50:19;;;;;;;;;;;7.80;99.90;;;;;;4862773;29;1046;-59
2023/03/17 05:52:46;;;;;;;;;;;7.80;99.90;;;;;;4862002;29;1251;-61
2023/03/17 05:55:13;;;;;;;;;;;7.80;99.90;;;;;;4863573;29;1176;-60
2023/03/17 05:57:39;;;;;;;;;;;7.80;99.90;;;;;;4880191;29;1992;-59
2023/03/17 06:00:06;;;;;;;;;;;7.80;99.90;;;;;;4880179;29;1335;-59
2023/03/17 06:02:34;;;;;;;;;;;7.90;99.90;;;;;;4880892;29;1331;-60
2023/03/17 06:05:01;;;;;;;;;;;7.90;99.90;;;;;;4863172;29;1340;-59
2023/03/17 06:07:27;;;;;;;;;;;7.90;99.90;;;;;;4863799;29;1359;-62
2023/03/17 06:09:54;;;;;;;;;;;8.00;99.90;;;;;;4860540;29;1340;-58
2023/03/17 06:12:21;;;;;;;;;;;8.00;99.90;;;;;;4864596;29;1271;-58
2023/03/17 06:14:47;;;;;;;;;;;8.00;99.90;;;;;;4880507;29;1116;-60
2023/03/17 06:17:13;;;;;;;;;;;8.00;99.90;;;;;;4880369;29;1978;-61
2023/03/17 06:19:39;;;;;;;;;;;8.10;99.90;;;;;;4862440;29;1121;-59
2023/03/17 06:22:06;;;;;;;;;;;8.10;99.90;;;;;;4876743;29;1137;-60
2023/03/17 06:24:32;;;;;;;;;;;8.10;99.90;;;;;;4879617;29;1020;-60
2023/03/17 06:26:58;;;;;;;;;;;8.20;99.90;;;;;;4880187;29;1027;-61
2023/03/17 06:29:25;;;;;;;;;;;8.40;99.90;;;;;;4863681;29;1149;-61
2023/03/17 06:31:51;;;;;;;;;;;8.60;99.90;;;;;;4862063;29;1146;-61
2023/03/17 06:34:20;;;;;;;;;;;8.70;99.90;;;;;;4864446;29;1037;-59
2023/03/17 06:36:47;;;;;;;;;;;8.70;99.90;;;;;;4880578;29;1970;-61
2023/03/17 06:39:14;;;;;;;;;;;8.70;99.90;;;;;;4865120;29;1174;-60
2023/03/17 06:41:40;;;;;;;;;;;8.70;99.90;;;;;;4861563;29;1742;-62
2023/03/17 06:44:07;;;;;;;;;;;8.60;99.90;;;;;;4862708;29;870;-61
2023/03/17 06:46:33;;;;;;;;;;;8.60;99.90;;;;;;4864057;29;1641;-61
2023/03/17 06:49:00;;;;;;;;;;;8.60;99.90;;;;;;4856789;29;1266;-58
2023/03/17 06:51:26;;;;;;;;;;;8.60;99.90;;;;;;4880592;29;1064;-63
2023/03/17 06:53:53;;;;;;;;;;;8.60;99.90;;;;;;4881219;29;1072;-61
2023/03/17 06:56:19;;;;;;;;;;;8.60;99.90;;;;;;4874638;29;1634;-61
2023/03/17 06:58:45;;;;;;;;;;;8.60;99.90;;;;;;4872800;29;1907;-61
2023/03/17 07:01:13;;;;;;;;;;;8.60;99.90;;;;;;4880715;29;963;-61
2023/03/17 07:03:40;;;;;;;;;;;8.60;99.90;;;;;;4864098;29;1052;-61
2023/03/17 07:06:07;;;;;;;;;;;8.70;99.90;;;;;;4880162;29;1001;-63
2023/03/17 07:08:34;;;;;;;;;;;8.70;99.90;;;;;;4870458;29;1154;-62
2023/03/17 07:11:00;;;;;;;;;;;8.70;99.90;;;;;;4846294;29;1033;-60
2023/03/17 07:13:26;;;;;;;;;;;8.70;99.90;;;;;;4870746;29;1046;-61
2023/03/17 07:15:53;;;;;;;;;;;8.80;99.90;;;;;;4879823;29;1001;-60
2023/03/17 07:18:20;;;;;;;;;;;8.80;99.90;;;;;;4871407;29;1911;-62
2023/03/17 07:20:47;;;;;;;;;;;8.80;99.90;;;;;;4848411;29;1667;-63
2023/03/17 07:23:14;;;;;;;;;;;8.80;99.90;;;;;;4867505;29;1333;-62
2023/03/17 07:25:42;;;;;;;;;;;8.80;99.90;;;;;;4853778;29;1285;-61
2023/03/17 07:28:08;;;;;;;;;;;8.90;99.90;;;;;;4867688;29;1251;-62
2023/03/17 07:30:34;;;;;;;;;;;8.90;99.90;;;;;;4870402;29;1259;-65
2023/03/17 07:33:01;;;;;;;;;;;8.90;99.90;;;;;;4852666;29;1321;-59
2023/03/17 07:35:27;;;;;;;;;;;9.00;99.90;;;;;;4869917;29;1321;-62
2023/03/17 07:37:54;;;;;;;;;;;9.10;99.90;;;;;;4868851;29;1908;-61
2023/03/17 07:40:20;;;;;;;;;;;9.10;99.90;;;;;;4869902;29;1246;-60
2023/03/17 07:42:46;;;;;;;;;;;9.10;99.90;;;;;;4865658;29;1888;-62
2023/03/17 07:45:12;;;;;;;;;;;9.20;99.90;;;;;;4871821;29;1094;-60
2023/03/17 07:47:39;;;;;;;;;;;9.30;99.90;;;;;;4872790;29;1059;-62
2023/03/17 07:50:05;;;;;;;;;;;9.40;99.90;;;;;;4880264;29;758;-60
2023/03/17 07:52:31;;;;;;;;;;;9.40;99.90;;;;;;4866219;29;1039;-61
2023/03/17 07:54:57;;;;;;;;;;;9.50;99.90;;;;;;4850423;29;1589;-61
2023/03/17 07:57:24;;;;;;;;;;;9.60;99.90;;;;;;4879580;29;1915;-60
2023/03/17 07:59:50;;;;;;;;;;;9.60;99.90;;;;;;4875363;29;1090;-62
2023/03/17 08:02:20;;;;;;;;;;;9.80;99.90;;;;;;4880394;29;997;-62
2023/03/17 08:04:46;;;;;;;;;;;9.90;99.90;;;;;;4880576;29;1009;-62
2023/03/17 08:07:13;;;;;;;;;;;10.00;99.90;;;;;;4880327;29;937;-62
2023/03/17 08:09:39;;;;;;;;;;;10.00;99.90;;;;;;4862109;29;1140;-61
2023/03/17 08:12:07;;;;;;;;;;;10.10;99.90;;;;;;4861643;29;989;-60
2023/03/17 08:14:33;;;;;;;;;;;10.20;99.90;;;;;;4861863;29;1064;-61
2023/03/17 08:16:59;;;;;;;;;;;10.30;99.90;;;;;;4867235;29;1907;-61
2023/03/17 08:19:25;;;;;;;;;;;10.30;99.90;;;;;;4863689;29;1378;-61
2023/03/17 08:21:52;;;;;;;;;;;10.20;99.90;;;;;;4861682;29;776;-62
2023/03/17 08:24:18;;;;;;;;;;;10.30;99.90;;;;;;4861733;29;760;-60
2023/03/17 08:26:48;;;;;;;;;;;10.30;99.90;;;;;;4861622;29;870;-62
2023/03/17 08:29:14;;;;;;;;;;;10.30;99.90;;;;;;4875322;29;1127;-60
2023/03/17 08:31:41;;;;;;;;;;;10.30;99.90;;;;;;4880075;29;996;-62
2023/03/17 08:34:07;;;;;;;;;;;10.30;99.90;;;;;;4880105;29;870;-62
2023/03/17 08:36:33;;;;;;;;;;;10.40;99.90;;;;;;4880324;29;981;-61
2023/03/17 08:38:59;;;;;;;;;;;10.50;99.90;;;;;;4867020;29;1907;-61
2023/03/17 08:41:27;;;;;;;;;;;10.40;99.90;;;;;;4861546;29;981;-62
2023/03/17 08:43:53;;;;;;;;;;;10.40;99.90;;;;;;4861717;29;1061;-61
2023/03/17 08:46:22;;;;;;;;;;;10.50;99.90;;;;;;4861488;29;907;-63
2023/03/17 08:48:49;;;;;;;;;;;10.50;99.90;;;;;;4871625;29;1398;-61
2023/03/17 08:51:16;;;;;;;;;;;10.70;99.90;;;;;;4873540;29;1016;-60
2023/03/17 08:53:43;;;;;;;;;;;10.90;99.90;;;;;;4861598;29;1099;-62
2023/03/17 08:56:10;;;;;;;;;;;11.00;99.90;;;;;;4860705;29;1195;-63
2023/03/17 08:58:38;;;;;;;;;;;11.30;99.90;;;;;;4872392;29;1982;-62
2023/03/17 09:01:05;;;;;;;;;;;11.40;99.90;;;;;;4883223;29;823;-63
2023/03/17 09:03:31;;;;;;;;;;;11.60;99.90;;;;;;4883701;29;1028;-63
2023/03/17 09:05:58;;;;;;;;;;;11.70;99.90;;;;;;4883368;29;949;-64
2023/03/17 09:08:26;;;;;;;;;;;11.80;99.90;;;;;;4874883;29;1206;-62
2023/03/17 09:10:53;;;;;;;;;;;11.90;99.90;;;;;;4848450;29;1053;-63
2023/03/17 09:13:19;;;;;;;;;;;11.90;99.90;;;;;;4864622;29;1014;-61
2023/03/17 09:15:45;;;;;;;;;;;12.00;99.90;;;;;;4864410;29;1003;-63
2023/03/17 09:18:13;;;;;;;;;;;12.10;99.90;;;;;;4870197;29;1971;-63
2023/03/17 09:20:40;;;;;;;;;;;12.30;99.90;;;;;;4883041;29;1055;-62
2023/03/17 09:23:07;;;;;;;;;;;12.30;99.90;;;;;;4883059;29;981;-63
2023/03/17 09:25:35;;;;;;;;;;;12.50;99.90;;;;;;4882957;29;1048;-65
2023/03/17 09:28:01;;;;;;;;;;;12.70;99.90;;;;;;4862991;29;1288;-63
2023/03/17 09:30:28;;;;;;;;;;;12.80;99.90;;;;;;4864428;29;993;-62
2023/03/17 09:32:54;;;;;;;;;;;12.90;99.90;;;;;;4864269;29;941;-62
2023/03/17 09:35:21;;;;;;;;;;;12.90;99.90;;;;;;4864369;29;1001;-63
2023/03/17 09:37:47;;;;;;;;;;;12.90;99.90;;;;;;4866552;29;1915;-62
2023/03/17 09:40:18;;;;;;;;;;;12.90;99.90;;;;;;4882849;29;981;-63
2023/03/17 09:42:59;;;;;;;;;;;13.00;99.90;;;;;;4882949;29;1000;-62
2023/03/17 09:45:38;;;;;;;;;;;13.20;99.90;;;;;;4882754;29;1100;-62
2023/03/17 09:48:35;;;;;;;;;;;13.30;99.90;;;;;;4877359;29;1170;-63
2023/03/17 09:51:09;;;;;;;;;;;13.30;99.90;;;;;;4856693;29;1403;-63
2023/03/17 09:53:47;;;;;;;;;;;13.40;99.90;;;;;;4882629;29;1001;-64
2023/03/17 09:56:15;;;;;;;;;;;13.50;99.90;;;;;;4882010;29;1193;-63
2023/03/17 09:58:45;;;;;;;;;;;13.60;99.90;;;;;;4872242;29;1910;-63
2023/03/17 10:01:12;;;;;;;;;;;13.70;99.90;;;;;;4847142;29;1136;-64
2023/03/17 10:03:38;;;;;;;;;;;13.70;99.90;;;;;;4864068;29;1001;-62
2023/03/17 10:06:14;;;;;;;;;;;13.90;99.90;;;;;;4864020;29;1076;-63
2023/03/17 10:08:52;;;;;;;;;;;14.00;99.90;;;;;;4872184;29;1183;-63
2023/03/17 10:11:26;;;;;;;;;;;14.10;99.90;;;;;;4882300;29;1038;-63
2023/03/17 10:13:57;;;;;;;;;;;14.20;99.90;;;;;;4882241;29;1063;-61
2023/03/17 10:16:42;;;;;;;;;;;14.30;99.90;;;;;;4882334;29;1012;-63
2023/03/17 10:19:22;;;;;;;;;;;14.40;99.90;;;;;;4869030;29;1907;-63
2023/03/17 10:21:52;;;;;;;;;;;14.40;99.90;;;;;;4864227;29;1312;-62
2023/03/17 10:24:19;;;;;;;;;;;14.50;99.90;;;;;;4862683;29;742;-62
2023/03/17 10:26:48;;;;;;;;;;;14.50;99.90;;;;;;4846491;29;1009;-62
2023/03/17 10:29:24;;;;;;;;;;;14.70;99.90;;;;;;4875740;29;1153;-61
2023/03/17 10:31:52;;;;;;;;;;;14.70;99.90;;;;;;4881140;29;798;-62
2023/03/17 10:34:20;;;;;;;;;;;14.80;99.90;;;;;;4881353;29;811;-63
2023/03/17 10:36:49;;;;;;;;;;;15.10;99.90;;;;;;4881259;29;1001;-62
2023/03/17 10:39:20;;;;;;;;;;;15.20;99.90;;;;;;4866586;29;1907;-62
2023/03/17 10:42:06;;;;;;;;;;;15.20;99.90;;;;;;4846355;29;993;-63
2023/03/17 10:44:42;;;;;;;;;;;15.30;99.90;;;;;;4862429;29;998;-62
2023/03/17 10:47:44;;;;;;;;;;;15.40;99.90;;;;;;4862416;29;989;-63
2023/03/17 10:50:18;;;;;;;;;;;15.60;99.90;;;;;;4805471;29;1203;-61
2023/03/17 10:52:46;;;;;;;;;;;15.70;99.90;;;;;;4868956;29;1107;-63
2023/03/17 10:55:18;;;;;;;;;;;15.90;99.90;;;;;;4880996;29;1044;-61
2023/03/17 10:57:49;;;;;;;;;;;15.80;99.90;;;;;;4877294;29;1981;-63
2023/03/17 11:00:18;;;;;;;;;;;15.90;99.90;;;;;;4862476;29;875;-62
2023/03/17 11:02:55;;;;;;;;;;;15.70;99.90;;;;;;4862107;29;1058;-62
2023/03/17 11:05:27;;;;;;;;;;;15.70;99.90;;;;;;4862449;29;1061;-62
2023/03/17 11:08:04;;;;;;;;;;;15.80;99.90;;;;;;4864156;29;1197;-62
2023/03/17 11:10:34;;;;;;;;;;;15.90;99.90;;;;;;4880874;29;989;-63
2023/03/17 11:13:01;;;;;;;;;;;15.80;99.90;;;;;;4880941;29;1405;-60
2023/03/17 11:15:30;;;;;;;;;;;15.80;99.90;;;;;;4880773;29;882;-62
2023/03/17 11:17:58;;;;;;;;;;;15.60;99.90;;;;;;4876652;29;1970;-63
2023/03/17 11:20:37;;;;;;;;;;;15.40;99.90;;;;;;4861989;29;826;-63
2023/03/17 11:23:09;;;;;;;;;;;15.50;99.90;;;;;;4862636;29;1013;-63
2023/03/17 11:25:39;;;;;;;;;;;15.60;99.90;;;;;;4862173;29;799;-62
2023/03/17 11:28:05;;;;;;;;;;;15.70;99.90;;;;;;4865627;29;1158;-63
2023/03/17 11:30:35;;;;;;;;;;;15.80;99.90;;;;;;4880903;29;794;-62
2023/03/17 11:33:12;;;;;;;;;;;15.80;99.90;;;;;;4864510;29;1040;-61
2023/03/17 11:35:42;;;;;;;;;;;15.90;99.90;;;;;;4880539;29;989;-62
2023/03/17 11:38:08;;;;;;;;;;;15.80;99.90;;;;;;4874871;29;1903;-61
2023/03/17 11:40:50;;;;;;;;;;;15.80;99.90;;;;;;4845622;29;1052;-64
2023/03/17 11:43:16;;;;;;;;;;;15.80;99.90;;;;;;4845436;29;771;-62
2023/03/17 11:45:47;;;;;;;;;;;15.80;99.90;;;;;;4845195;29;1069;-60
2023/03/17 11:48:13;;;;;;;;;;;15.70;99.90;;;;;;4866193;29;1224;-63
2023/03/17 11:50:43;;;;;;;;;;;15.70;99.90;;;;;;4878369;29;1059;-62
2023/03/17 11:53:19;;;;;;;;;;;15.80;99.90;;;;;;4861467;29;1085;-62
2023/03/17 11:56:04;;;;;;;;;;;15.90;99.90;;;;;;4861496;29;1307;-63
2023/03/17 11:58:35;;;;;;;;;;;16.00;99.90;;;;;;4852185;29;1974;-63
2023/03/17 12:01:07;;;;;;;;;;;16.20;99.90;;;;;;4880807;29;1005;-61
2023/03/17 12:03:38;;;;;;;;;;;16.20;99.90;;;;;;4863878;29;1171;-63
2023/03/17 12:06:10;;;;;;;;;;;16.20;99.90;;;;;;4880095;29;969;-64
2023/03/17 12:08:49;;;;;;;;;;;16.20;99.90;;;;;;4871621;29;1178;-62
2023/03/17 12:11:19;;;;;;;;;;;16.20;99.90;;;;;;4845251;29;1001;-62
2023/03/17 12:13:48;;;;;;;;;;;16.30;99.90;;;;;;4844977;29;990;-63
2023/03/17 12:16:21;;;;;;;;;;;16.30;99.90;;;;;;4861160;29;1018;-62
2023/03/17 12:18:51;;;;;;;;;;;16.30;99.90;;;;;;4870502;29;1915;-61
2023/03/17 12:21:26;;;;;;;;;;;16.30;99.90;;;;;;4879885;29;993;-62
2023/03/17 12:24:11;;;;;;;;;;;16.20;99.90;;;;;;4880109;29;1024;-62
2023/03/17 12:26:40;;;;;;;;;;;16.30;99.90;;;;;;4879998;29;842;-62
2023/03/17 12:29:11;;;;;;;;;;;16.40;99.90;;;;;;4867486;29;1138;-63
2023/03/17 12:31:43;;;;;;;;;;;16.40;99.90;;;;;;4860982;29;965;-62
2023/03/17 12:34:09;;;;;;;;;;;16.40;99.90;;;;;;4877280;29;1492;-62
2023/03/17 12:36:36;;;;;;;;;;;16.50;99.90;;;;;;4883363;29;1270;-63
2023/03/17 12:39:09;;;;;;;;;;;16.50;99.90;;;;;;4881035;29;1887;-61
2023/03/17 12:41:41;;;;;;;;;;;16.50;99.90;;;;;;4866959;29;1314;-63
2023/03/17 12:44:17;;;;;;;;;;;16.60;99.90;;;;;;4882871;29;1120;-62
2023/03/17 12:46:56;;;;;;;;;;;16.60;99.90;;;;;;4882709;29;1318;-63
2023/03/17 12:49:28;;;;;;;;;;;16.80;99.90;;;;;;4869398;29;1154;-62
2023/03/17 12:51:55;;;;;;;;;;;16.90;99.90;;;;;;4875873;29;1043;-63
2023/03/17 12:54:32;;;;;;;;;;;16.90;99.90;;;;;;4883382;29;989;-61
2023/03/17 12:57:21;;;;;;;;;;;17.00;99.90;;;;;;4873188;29;1332;-63
2023/03/17 12:59:49;;;;;;;;;;;16.80;99.90;;;;;;4860760;29;1977;-62
2023/03/17 13:02:22;;;;;;;;;;;16.80;99.90;;;;;;4864662;29;1012;-62
2023/03/17 13:04:56;;;;;;;;;;;16.80;99.90;;;;;;4863677;29;784;-62
2023/03/17 13:07:30;;;;;;;;;;;16.80;99.90;;;;;;4864437;29;1372;-62
2023/03/17 13:09:59;;;;;;;;;;;16.90;99.90;;;;;;4881717;29;1185;-63
2023/03/17 13:12:43;;;;;;;;;;;16.90;99.90;;;;;;4882569;29;1136;-62
2023/03/17 13:15:29;;;;;;;;;;;17.00;99.90;;;;;;4881655;29;1260;-63
2023/03/17 13:18:14;;;;;;;;;;;17.00;99.90;;;;;;4881042;29;1911;-62
2023/03/17 13:20:40;;;;;;;;;;;16.90;99.90;;;;;;4880255;29;1208;-63
2023/03/17 13:23:09;;;;;;;;;;;16.90;99.90;;;;;;4880688;29;1332;-62
2023/03/17 13:25:40;;;;;;;;;;;16.90;99.90;;;;;;4882036;29;1265;-62
2023/03/17 13:28:09;;;;;;;;;;;16.90;99.90;;;;;;4876481;29;1586;-62
2023/03/17 13:30:35;;;;;;;;;;;16.90;99.90;;;;;;4881781;29;1342;-62
2023/03/17 13:33:11;;;;;;;;;;;16.90;99.90;;;;;;4882955;29;988;-63
2023/03/17 13:35:45;;;;;;;;;;;17.00;99.90;;;;;;4881821;29;933;-63
2023/03/17 13:38:20;;;;;;;;;;;17.00;99.90;;;;;;4881200;29;1902;-62
2023/03/17 13:41:05;;;;;;;;;;;17.20;99.90;;;;;;4866853;29;1529;-61
2023/03/17 13:43:50;;;;;;;;;;;17.00;99.90;;;;;;4863810;29;794;-61
2023/03/17 13:46:16;;;;;;;;;;;17.10;99.90;;;;;;4863857;29;1044;-63
2023/03/17 13:48:43;;;;;;;;;;;17.20;99.90;;;;;;4864771;29;1935;-64
2023/03/17 13:51:20;;;;;;;;;;;17.20;99.90;;;;;;4869840;29;1597;-63
2023/03/17 13:53:49;;;;;;;;;;;17.10;99.90;;;;;;4881435;29;1178;-62
2023/03/17 13:56:35;;;;;;;;;;;17.10;99.90;;;;;;4881364;29;1577;-62
2023/03/17 13:59:01;;;;;;;;;;;17.10;99.90;;;;;;4871364;29;1916;-61
2023/03/17 14:01:30;;;;;;;;;;;17.10;99.90;;;;;;4863341;29;1005;-63
2023/03/17 14:03:56;;;;;;;;;;;17.10;99.90;;;;;;4862444;29;1040;-63
2023/03/17 14:06:26;;;;;;;;;;;17.10;99.90;;;;;;4876121;29;1154;-61
2023/03/17 14:08:56;;;;;;;;;;;17.00;99.90;;;;;;4872404;29;1142;-62
2023/03/17 14:11:25;;;;;;;;;;;16.90;99.90;;;;;;4846815;29;1093;-62
2023/03/17 14:13:54;;;;;;;;;;;16.80;99.90;;;;;;4847128;29;1257;-62
2023/03/17 14:16:30;;;;;;;;;;;16.80;99.90;;;;;;4863359;29;1009;-63
2023/03/17 14:18:59;;;;;;;;;;;16.80;99.90;;;;;;4871937;29;1915;-63
2023/03/17 14:21:32;;;;;;;;;;;16.70;99.90;;;;;;4865432;29;1374;-62
2023/03/17 14:23:59;;;;;;;;;;;16.80;99.90;;;;;;4880805;29;1174;-62
2023/03/17 14:26:27;;;;;;;;;;;16.80;99.90;;;;;;4881808;29;799;-62
2023/03/17 14:28:54;;;;;;;;;;;16.90;99.90;;;;;;4880344;29;1173;-62
2023/03/17 14:31:25;;;;;;;;;;;16.80;99.90;;;;;;4854476;29;1584;-61
2023/03/17 14:33:56;;;;;;;;;;;16.70;99.90;;;;;;4862049;29;937;-62
2023/03/17 14:36:23;;;;;;;;;;;16.70;99.90;;;;;;4862985;29;1001;-62
2023/03/17 14:38:51;;;;;;;;;;;16.70;99.90;;;;;;4870241;29;2014;-61
2023/03/17 14:41:18;;;;;;;;;;;16.70;99.90;;;;;;4881243;29;1005;-62
2023/03/17 14:43:45;;;;;;;;;;;16.70;99.90;;;;;;4881296;29;1121;-62
2023/03/17 14:46:13;;;;;;;;;;;16.60;99.90;;;;;;4880739;29;1734;-63
2023/03/17 14:48:41;;;;;;;;;;;16.60;99.90;;;;;;4873394;29;1134;-62
2023/03/17 14:51:27;;;;;;;;;;;16.60;99.90;;;;;;4867610;29;1087;-61